sensor_id;sensor_type;location;lat;lon;timestamp;P1;durP1;ratioP1;P2;durP2;ratioP2
15425;SDS011;7812;50.072;7.036;2022-11-14T00:00:31;5.33;;;3.37;;
15425;SDS011;7812;50.072;7.036;2022-11-14T00:03:07;3.73;;;3.37;;
15425;SDS011;7812;50.072;7.036;2022-11-14T00:05:40;3.33;;;3.03;;
15425;SDS011;7812;50.072;7.036;2022-11-14T00:08:13;4.10;;;3.20;;
15425;SDS011;7812;50.072;7.036;2022-11-14T00:10:46;6.80;;;3.00;;
15425;SDS011;7812;50.072;7.036;2022-11-14T00:13:15;6.43;;;3.47;;
15425;SDS011;7812;50.072;7.036;2022-11-14T00:15:42;3.63;;;2.90;;
15425;SDS011;7812;50.072;7.036;2022-11-14T00:18:08;3.30;;;2.70;;
15425;SDS011;7812;50.072;7.036;2022-11-14T00:20:34;3.73;;;3.10;;
15425;SDS011;7812;50.072;7.036;2022-11-14T00:23:00;3.37;;;3.07;;
15425;SDS011;7812;50.072;7.036;2022-11-14T00:25:26;4.20;;;3.33;;
15425;SDS011;7812;50.072;7.036;2022-11-14T00:27:52;4.07;;;3.33;;
15425;SDS011;7812;50.072;7.036;2022-11-14T00:30:22;4.17;;;3.30;;
15425;SDS011;7812;50.072;7.036;2022-11-14T00:32:47;5.43;;;3.37;;
15425;SDS011;7812;50.072;7.036;2022-11-14T00:35:13;10.57;;;3.40;;
15425;SDS011;7812;50.072;7.036;2022-11-14T00:40:26;4.23;;;3.73;;
15425;SDS011;7812;50.072;7.036;2022-11-14T00:42:51;3.63;;;3.20;;
15425;SDS011;7812;50.072;7.036;2022-11-14T00:45:17;4.30;;;3.13;;
15425;SDS011;7812;50.072;7.036;2022-11-14T00:47:42;4.20;;;3.03;;
15425;SDS011;7812;50.072;7.036;2022-11-14T00:50:08;5.53;;;3.63;;
15425;SDS011;7812;50.072;7.036;2022-11-14T00:52:34;3.97;;;3.53;;
15425;SDS011;7812;50.072;7.036;2022-11-14T00:55:00;3.83;;;3.27;;
15425;SDS011;7812;50.072;7.036;2022-11-14T00:57:26;4.27;;;3.30;;
15425;SDS011;7812;50.072;7.036;2022-11-14T00:59:52;3.80;;;3.20;;
15425;SDS011;7812;50.072;7.036;2022-11-14T01:02:19;5.17;;;3.20;;
15425;SDS011;7812;50.072;7.036;2022-11-14T01:04:45;5.23;;;3.07;;
15425;SDS011;7812;50.072;7.036;2022-11-14T01:07:11;4.03;;;2.80;;
15425;SDS011;7812;50.072;7.036;2022-11-14T01:09:36;5.63;;;3.63;;
15425;SDS011;7812;50.072;7.036;2022-11-14T01:12:02;3.33;;;2.97;;
15425;SDS011;7812;50.072;7.036;2022-11-14T01:14:28;3.63;;;2.83;;
15425;SDS011;7812;50.072;7.036;2022-11-14T01:16:54;3.30;;;3.00;;
15425;SDS011;7812;50.072;7.036;2022-11-14T01:19:19;5.63;;;3.10;;
15425;SDS011;7812;50.072;7.036;2022-11-14T01:21:45;4.13;;;3.10;;
15425;SDS011;7812;50.072;7.036;2022-11-14T01:24:10;4.37;;;3.37;;
15425;SDS011;7812;50.072;7.036;2022-11-14T01:26:36;4.30;;;3.23;;
15425;SDS011;7812;50.072;7.036;2022-11-14T01:29:02;3.83;;;3.27;;
15425;SDS011;7812;50.072;7.036;2022-11-14T01:31:27;3.93;;;3.43;;
15425;SDS011;7812;50.072;7.036;2022-11-14T01:33:53;3.53;;;3.23;;
15425;SDS011;7812;50.072;7.036;2022-11-14T01:36:19;4.67;;;3.67;;
15425;SDS011;7812;50.072;7.036;2022-11-14T01:38:45;4.17;;;3.20;;
15425;SDS011;7812;50.072;7.036;2022-11-14T01:41:15;4.50;;;3.10;;
15425;SDS011;7812;50.072;7.036;2022-11-14T01:43:43;4.13;;;3.30;;
15425;SDS011;7812;50.072;7.036;2022-11-14T01:48:43;4.47;;;3.40;;
15425;SDS011;7812;50.072;7.036;2022-11-14T01:53:50;3.80;;;3.37;;
15425;SDS011;7812;50.072;7.036;2022-11-14T01:56:21;6.47;;;3.90;;
15425;SDS011;7812;50.072;7.036;2022-11-14T01:59:04;4.27;;;3.30;;
15425;SDS011;7812;50.072;7.036;2022-11-14T02:01:33;4.03;;;3.27;;
15425;SDS011;7812;50.072;7.036;2022-11-14T02:04:01;4.47;;;3.47;;
15425;SDS011;7812;50.072;7.036;2022-11-14T02:06:30;3.67;;;2.97;;
15425;SDS011;7812;50.072;7.036;2022-11-14T02:08:56;3.97;;;3.57;;
15425;SDS011;7812;50.072;7.036;2022-11-14T02:11:29;3.37;;;2.93;;
15425;SDS011;7812;50.072;7.036;2022-11-14T02:13:58;4.13;;;3.37;;
15425;SDS011;7812;50.072;7.036;2022-11-14T02:16:25;4.67;;;3.53;;
15425;SDS011;7812;50.072;7.036;2022-11-14T02:18:52;4.00;;;3.33;;
15425;SDS011;7812;50.072;7.036;2022-11-14T02:21:17;3.67;;;3.17;;
15425;SDS011;7812;50.072;7.036;2022-11-14T02:23:43;4.07;;;3.37;;
15425;SDS011;7812;50.072;7.036;2022-11-14T02:26:08;6.00;;;3.77;;
15425;SDS011;7812;50.072;7.036;2022-11-14T02:28:34;5.60;;;3.33;;
15425;SDS011;7812;50.072;7.036;2022-11-14T02:31:00;3.37;;;2.83;;
15425;SDS011;7812;50.072;7.036;2022-11-14T02:33:26;4.83;;;3.53;;
15425;SDS011;7812;50.072;7.036;2022-11-14T02:35:52;3.73;;;3.10;;
15425;SDS011;7812;50.072;7.036;2022-11-14T02:38:18;4.20;;;3.30;;
15425;SDS011;7812;50.072;7.036;2022-11-14T02:40:43;4.07;;;3.43;;
15425;SDS011;7812;50.072;7.036;2022-11-14T02:43:10;4.03;;;3.43;;
15425;SDS011;7812;50.072;7.036;2022-11-14T02:45:36;5.47;;;3.90;;
15425;SDS011;7812;50.072;7.036;2022-11-14T02:48:02;4.40;;;3.63;;
15425;SDS011;7812;50.072;7.036;2022-11-14T02:50:27;4.30;;;3.30;;
15425;SDS011;7812;50.072;7.036;2022-11-14T02:52:53;4.90;;;3.60;;
15425;SDS011;7812;50.072;7.036;2022-11-14T02:55:20;5.03;;;3.70;;
15425;SDS011;7812;50.072;7.036;2022-11-14T02:57:46;4.33;;;3.70;;
15425;SDS011;7812;50.072;7.036;2022-11-14T03:00:11;4.67;;;3.37;;
15425;SDS011;7812;50.072;7.036;2022-11-14T03:02:37;3.90;;;3.50;;
15425;SDS011;7812;50.072;7.036;2022-11-14T03:05:03;5.00;;;3.67;;
15425;SDS011;7812;50.072;7.036;2022-11-14T03:07:29;5.60;;;3.20;;
15425;SDS011;7812;50.072;7.036;2022-11-14T03:09:55;4.10;;;3.37;;
15425;SDS011;7812;50.072;7.036;2022-11-14T03:12:20;4.23;;;3.40;;
15425;SDS011;7812;50.072;7.036;2022-11-14T03:14:46;4.17;;;3.40;;
15425;SDS011;7812;50.072;7.036;2022-11-14T03:17:12;4.73;;;3.80;;
15425;SDS011;7812;50.072;7.036;2022-11-14T03:19:37;4.80;;;3.67;;
15425;SDS011;7812;50.072;7.036;2022-11-14T03:22:03;4.33;;;3.67;;
15425;SDS011;7812;50.072;7.036;2022-11-14T03:24:29;4.17;;;3.40;;
15425;SDS011;7812;50.072;7.036;2022-11-14T03:26:55;3.47;;;3.17;;
15425;SDS011;7812;50.072;7.036;2022-11-14T03:29:20;3.67;;;3.27;;
15425;SDS011;7812;50.072;7.036;2022-11-14T03:31:46;4.47;;;3.53;;
15425;SDS011;7812;50.072;7.036;2022-11-14T03:34:12;3.83;;;3.30;;
15425;SDS011;7812;50.072;7.036;2022-11-14T03:36:38;4.63;;;3.53;;
15425;SDS011;7812;50.072;7.036;2022-11-14T03:39:04;3.83;;;3.40;;
15425;SDS011;7812;50.072;7.036;2022-11-14T03:41:30;5.87;;;3.70;;
15425;SDS011;7812;50.072;7.036;2022-11-14T03:43:56;5.13;;;3.57;;
15425;SDS011;7812;50.072;7.036;2022-11-14T03:46:22;3.67;;;3.23;;
15425;SDS011;7812;50.072;7.036;2022-11-14T03:48:47;5.23;;;3.47;;
15425;SDS011;7812;50.072;7.036;2022-11-14T03:51:13;4.43;;;3.07;;
15425;SDS011;7812;50.072;7.036;2022-11-14T03:53:39;5.10;;;3.37;;
15425;SDS011;7812;50.072;7.036;2022-11-14T03:56:05;5.27;;;4.10;;
15425;SDS011;7812;50.072;7.036;2022-11-14T03:58:31;4.87;;;3.37;;
15425;SDS011;7812;50.072;7.036;2022-11-14T04:00:56;4.83;;;3.57;;
15425;SDS011;7812;50.072;7.036;2022-11-14T04:03:22;4.43;;;3.97;;
15425;SDS011;7812;50.072;7.036;2022-11-14T04:05:48;4.23;;;3.57;;
15425;SDS011;7812;50.072;7.036;2022-11-14T04:08:15;4.83;;;3.37;;
15425;SDS011;7812;50.072;7.036;2022-11-14T04:10:41;5.13;;;3.47;;
15425;SDS011;7812;50.072;7.036;2022-11-14T04:13:07;4.27;;;3.77;;
15425;SDS011;7812;50.072;7.036;2022-11-14T04:15:33;3.73;;;3.37;;
15425;SDS011;7812;50.072;7.036;2022-11-14T04:17:58;3.90;;;3.43;;
15425;SDS011;7812;50.072;7.036;2022-11-14T04:20:24;5.07;;;3.27;;
15425;SDS011;7812;50.072;7.036;2022-11-14T04:22:50;4.23;;;3.50;;
15425;SDS011;7812;50.072;7.036;2022-11-14T04:25:16;3.67;;;3.33;;
15425;SDS011;7812;50.072;7.036;2022-11-14T04:27:42;3.83;;;3.37;;
15425;SDS011;7812;50.072;7.036;2022-11-14T04:30:08;5.53;;;4.10;;
15425;SDS011;7812;50.072;7.036;2022-11-14T04:32:34;4.07;;;3.67;;
15425;SDS011;7812;50.072;7.036;2022-11-14T04:35:00;4.80;;;3.93;;
15425;SDS011;7812;50.072;7.036;2022-11-14T04:37:25;3.83;;;3.43;;
15425;SDS011;7812;50.072;7.036;2022-11-14T04:39:51;4.40;;;3.40;;
15425;SDS011;7812;50.072;7.036;2022-11-14T04:42:17;3.70;;;3.30;;
15425;SDS011;7812;50.072;7.036;2022-11-14T04:44:43;3.77;;;3.40;;
15425;SDS011;7812;50.072;7.036;2022-11-14T04:47:08;4.77;;;3.70;;
15425;SDS011;7812;50.072;7.036;2022-11-14T04:49:34;4.30;;;3.47;;
15425;SDS011;7812;50.072;7.036;2022-11-14T04:52:01;4.90;;;3.60;;
15425;SDS011;7812;50.072;7.036;2022-11-14T04:54:27;3.87;;;3.47;;
15425;SDS011;7812;50.072;7.036;2022-11-14T04:56:52;4.63;;;3.97;;
15425;SDS011;7812;50.072;7.036;2022-11-14T04:59:18;4.07;;;3.43;;
15425;SDS011;7812;50.072;7.036;2022-11-14T05:01:44;4.23;;;3.83;;
15425;SDS011;7812;50.072;7.036;2022-11-14T05:04:09;4.90;;;3.97;;
15425;SDS011;7812;50.072;7.036;2022-11-14T05:06:35;24.80;;;14.37;;
15425;SDS011;7812;50.072;7.036;2022-11-14T05:09:01;5.27;;;4.03;;
15425;SDS011;7812;50.072;7.036;2022-11-14T05:11:26;8.10;;;6.20;;
15425;SDS011;7812;50.072;7.036;2022-11-14T05:13:52;10.70;;;8.20;;
15425;SDS011;7812;50.072;7.036;2022-11-14T05:16:17;4.83;;;4.23;;
15425;SDS011;7812;50.072;7.036;2022-11-14T05:18:43;9.93;;;6.80;;
15425;SDS011;7812;50.072;7.036;2022-11-14T05:21:11;17.77;;;11.00;;
15425;SDS011;7812;50.072;7.036;2022-11-14T05:23:38;19.23;;;12.53;;
15425;SDS011;7812;50.072;7.036;2022-11-14T05:26:05;20.83;;;13.50;;
15425;SDS011;7812;50.072;7.036;2022-11-14T05:28:33;20.40;;;12.80;;
15425;SDS011;7812;50.072;7.036;2022-11-14T05:31:00;18.87;;;12.10;;
15425;SDS011;7812;50.072;7.036;2022-11-14T05:33:27;15.67;;;11.17;;
15425;SDS011;7812;50.072;7.036;2022-11-14T05:35:53;17.23;;;10.83;;
15425;SDS011;7812;50.072;7.036;2022-11-14T05:38:20;17.70;;;11.57;;
15425;SDS011;7812;50.072;7.036;2022-11-14T05:40:55;18.33;;;11.73;;
15425;SDS011;7812;50.072;7.036;2022-11-14T05:43:21;15.10;;;10.37;;
15425;SDS011;7812;50.072;7.036;2022-11-14T05:45:46;16.80;;;10.67;;
15425;SDS011;7812;50.072;7.036;2022-11-14T05:48:12;13.97;;;9.60;;
15425;SDS011;7812;50.072;7.036;2022-11-14T05:50:37;12.33;;;8.93;;
15425;SDS011;7812;50.072;7.036;2022-11-14T05:53:03;11.20;;;8.47;;
15425;SDS011;7812;50.072;7.036;2022-11-14T05:55:30;11.70;;;8.57;;
15425;SDS011;7812;50.072;7.036;2022-11-14T05:57:59;11.23;;;8.30;;
15425;SDS011;7812;50.072;7.036;2022-11-14T06:00:25;13.17;;;9.10;;
15425;SDS011;7812;50.072;7.036;2022-11-14T06:02:54;12.43;;;9.10;;
15425;SDS011;7812;50.072;7.036;2022-11-14T06:05:21;11.40;;;7.87;;
15425;SDS011;7812;50.072;7.036;2022-11-14T06:07:47;12.07;;;8.87;;
15425;SDS011;7812;50.072;7.036;2022-11-14T06:10:18;10.83;;;8.13;;
15425;SDS011;7812;50.072;7.036;2022-11-14T06:12:44;12.23;;;8.13;;
15425;SDS011;7812;50.072;7.036;2022-11-14T06:15:09;9.63;;;7.83;;
15425;SDS011;7812;50.072;7.036;2022-11-14T06:17:35;10.30;;;7.53;;
15425;SDS011;7812;50.072;7.036;2022-11-14T06:20:01;9.67;;;7.70;;
15425;SDS011;7812;50.072;7.036;2022-11-14T06:22:26;9.20;;;7.73;;
15425;SDS011;7812;50.072;7.036;2022-11-14T06:24:52;11.37;;;8.70;;
15425;SDS011;7812;50.072;7.036;2022-11-14T06:27:17;11.53;;;7.30;;
15425;SDS011;7812;50.072;7.036;2022-11-14T06:29:44;10.37;;;7.53;;
15425;SDS011;7812;50.072;7.036;2022-11-14T06:32:10;9.43;;;8.03;;
15425;SDS011;7812;50.072;7.036;2022-11-14T06:34:35;9.13;;;7.50;;
15425;SDS011;7812;50.072;7.036;2022-11-14T06:37:01;8.47;;;6.97;;
15425;SDS011;7812;50.072;7.036;2022-11-14T06:39:28;8.80;;;6.73;;
15425;SDS011;7812;50.072;7.036;2022-11-14T06:41:54;9.43;;;7.60;;
15425;SDS011;7812;50.072;7.036;2022-11-14T06:44:20;10.40;;;7.50;;
15425;SDS011;7812;50.072;7.036;2022-11-14T06:46:45;11.10;;;8.33;;
15425;SDS011;7812;50.072;7.036;2022-11-14T06:49:11;9.13;;;7.23;;
15425;SDS011;7812;50.072;7.036;2022-11-14T06:51:36;8.53;;;7.00;;
15425;SDS011;7812;50.072;7.036;2022-11-14T06:54:02;10.77;;;7.93;;
15425;SDS011;7812;50.072;7.036;2022-11-14T06:56:28;9.07;;;7.73;;
15425;SDS011;7812;50.072;7.036;2022-11-14T06:58:54;9.67;;;7.87;;
15425;SDS011;7812;50.072;7.036;2022-11-14T07:01:23;8.17;;;6.73;;
15425;SDS011;7812;50.072;7.036;2022-11-14T07:03:52;8.73;;;7.37;;
15425;SDS011;7812;50.072;7.036;2022-11-14T07:06:20;9.23;;;7.07;;
15425;SDS011;7812;50.072;7.036;2022-11-14T07:08:48;8.40;;;7.40;;
15425;SDS011;7812;50.072;7.036;2022-11-14T07:11:18;9.53;;;7.13;;
15425;SDS011;7812;50.072;7.036;2022-11-14T07:13:49;8.90;;;6.93;;
15425;SDS011;7812;50.072;7.036;2022-11-14T07:16:19;7.73;;;6.77;;
15425;SDS011;7812;50.072;7.036;2022-11-14T07:18:48;8.30;;;7.10;;
15425;SDS011;7812;50.072;7.036;2022-11-14T07:21:14;7.47;;;6.37;;
15425;SDS011;7812;50.072;7.036;2022-11-14T07:23:40;8.10;;;7.07;;
15425;SDS011;7812;50.072;7.036;2022-11-14T07:26:07;9.27;;;6.50;;
15425;SDS011;7812;50.072;7.036;2022-11-14T07:28:35;7.40;;;6.17;;
15425;SDS011;7812;50.072;7.036;2022-11-14T07:31:02;6.43;;;5.63;;
15425;SDS011;7812;50.072;7.036;2022-11-14T07:33:29;9.13;;;6.83;;
15425;SDS011;7812;50.072;7.036;2022-11-14T07:35:55;7.70;;;6.47;;
15425;SDS011;7812;50.072;7.036;2022-11-14T07:38:39;8.47;;;6.57;;
15425;SDS011;7812;50.072;7.036;2022-11-14T07:41:09;7.90;;;6.93;;
15425;SDS011;7812;50.072;7.036;2022-11-14T07:43:36;9.40;;;7.40;;
15425;SDS011;7812;50.072;7.036;2022-11-14T07:46:06;10.90;;;7.33;;
15425;SDS011;7812;50.072;7.036;2022-11-14T07:48:36;7.50;;;5.90;;
15425;SDS011;7812;50.072;7.036;2022-11-14T07:51:03;8.07;;;6.23;;
15425;SDS011;7812;50.072;7.036;2022-11-14T07:53:34;19.83;;;7.53;;
15425;SDS011;7812;50.072;7.036;2022-11-14T07:56:03;7.80;;;6.27;;
15425;SDS011;7812;50.072;7.036;2022-11-14T07:58:30;6.47;;;5.57;;
15425;SDS011;7812;50.072;7.036;2022-11-14T08:00:59;7.57;;;6.37;;
15425;SDS011;7812;50.072;7.036;2022-11-14T08:03:26;7.03;;;5.40;;
15425;SDS011;7812;50.072;7.036;2022-11-14T08:05:52;5.80;;;5.20;;
15425;SDS011;7812;50.072;7.036;2022-11-14T08:08:27;6.60;;;5.60;;
15425;SDS011;7812;50.072;7.036;2022-11-14T08:10:56;6.17;;;5.33;;
15425;SDS011;7812;50.072;7.036;2022-11-14T08:13:23;6.50;;;5.80;;
15425;SDS011;7812;50.072;7.036;2022-11-14T08:15:49;7.03;;;5.57;;
15425;SDS011;7812;50.072;7.036;2022-11-14T08:18:15;6.10;;;5.23;;
15425;SDS011;7812;50.072;7.036;2022-11-14T08:20:40;7.23;;;6.17;;
15425;SDS011;7812;50.072;7.036;2022-11-14T08:23:06;7.27;;;6.10;;
15425;SDS011;7812;50.072;7.036;2022-11-14T08:25:32;6.53;;;5.93;;
15425;SDS011;7812;50.072;7.036;2022-11-14T08:27:58;10.37;;;6.67;;
15425;SDS011;7812;50.072;7.036;2022-11-14T08:30:23;6.77;;;5.83;;
15425;SDS011;7812;50.072;7.036;2022-11-14T08:32:49;8.87;;;6.23;;
15425;SDS011;7812;50.072;7.036;2022-11-14T08:35:15;6.53;;;5.40;;
15425;SDS011;7812;50.072;7.036;2022-11-14T08:37:41;7.83;;;5.43;;
15425;SDS011;7812;50.072;7.036;2022-11-14T08:40:07;5.60;;;4.77;;
15425;SDS011;7812;50.072;7.036;2022-11-14T08:42:33;6.37;;;5.20;;
15425;SDS011;7812;50.072;7.036;2022-11-14T08:44:59;5.27;;;4.70;;
15425;SDS011;7812;50.072;7.036;2022-11-14T08:47:24;5.57;;;5.03;;
15425;SDS011;7812;50.072;7.036;2022-11-14T08:49:50;6.07;;;5.10;;
15425;SDS011;7812;50.072;7.036;2022-11-14T08:52:16;6.87;;;5.10;;
15425;SDS011;7812;50.072;7.036;2022-11-14T08:54:41;6.37;;;5.53;;
15425;SDS011;7812;50.072;7.036;2022-11-14T08:57:07;6.10;;;5.20;;
15425;SDS011;7812;50.072;7.036;2022-11-14T08:59:33;6.40;;;5.73;;
15425;SDS011;7812;50.072;7.036;2022-11-14T09:01:59;5.33;;;4.83;;
15425;SDS011;7812;50.072;7.036;2022-11-14T09:04:24;6.07;;;4.97;;
15425;SDS011;7812;50.072;7.036;2022-11-14T09:06:50;5.80;;;4.47;;
15425;SDS011;7812;50.072;7.036;2022-11-14T09:09:16;5.53;;;4.73;;
15425;SDS011;7812;50.072;7.036;2022-11-14T09:11:43;4.63;;;4.03;;
15425;SDS011;7812;50.072;7.036;2022-11-14T09:14:08;5.33;;;4.27;;
15425;SDS011;7812;50.072;7.036;2022-11-14T09:16:34;6.33;;;5.00;;
15425;SDS011;7812;50.072;7.036;2022-11-14T09:19:00;5.77;;;4.63;;
15425;SDS011;7812;50.072;7.036;2022-11-14T09:21:26;6.33;;;5.43;;
15425;SDS011;7812;50.072;7.036;2022-11-14T09:23:51;6.57;;;5.43;;
15425;SDS011;7812;50.072;7.036;2022-11-14T09:26:17;6.63;;;5.70;;
15425;SDS011;7812;50.072;7.036;2022-11-14T09:28:43;7.93;;;5.70;;
15425;SDS011;7812;50.072;7.036;2022-11-14T09:31:09;9.43;;;6.37;;
15425;SDS011;7812;50.072;7.036;2022-11-14T09:33:37;9.27;;;7.33;;
15425;SDS011;7812;50.072;7.036;2022-11-14T09:36:04;7.27;;;6.10;;
15425;SDS011;7812;50.072;7.036;2022-11-14T09:38:31;8.13;;;6.20;;
15425;SDS011;7812;50.072;7.036;2022-11-14T09:43:42;9.23;;;7.20;;
15425;SDS011;7812;50.072;7.036;2022-11-14T09:46:33;8.13;;;6.87;;
15425;SDS011;7812;50.072;7.036;2022-11-14T09:51:59;11.43;;;7.37;;
15425;SDS011;7812;50.072;7.036;2022-11-14T09:54:45;8.90;;;7.10;;
15425;SDS011;7812;50.072;7.036;2022-11-14T09:57:17;10.90;;;8.10;;
15425;SDS011;7812;50.072;7.036;2022-11-14T09:59:44;10.90;;;6.67;;
15425;SDS011;7812;50.072;7.036;2022-11-14T10:17:53;10.40;;;7.70;;
15425;SDS011;7812;50.072;7.036;2022-11-14T10:22:58;11.20;;;8.33;;
15425;SDS011;7812;50.072;7.036;2022-11-14T10:36:38;13.07;;;8.57;;
15425;SDS011;7812;50.072;7.036;2022-11-14T10:41:58;11.70;;;8.07;;
15425;SDS011;7812;50.072;7.036;2022-11-14T10:44:29;14.47;;;9.47;;
15425;SDS011;7812;50.072;7.036;2022-11-14T10:47:03;14.67;;;9.90;;
15425;SDS011;7812;50.072;7.036;2022-11-14T10:49:34;15.10;;;10.87;;
15425;SDS011;7812;50.072;7.036;2022-11-14T10:52:02;15.10;;;10.33;;
15425;SDS011;7812;50.072;7.036;2022-11-14T10:56:59;15.77;;;10.50;;
15425;SDS011;7812;50.072;7.036;2022-11-14T10:59:25;16.13;;;11.13;;
15425;SDS011;7812;50.072;7.036;2022-11-14T11:09:58;15.50;;;10.80;;
15425;SDS011;7812;50.072;7.036;2022-11-14T11:12:51;15.70;;;10.83;;
15425;SDS011;7812;50.072;7.036;2022-11-14T11:15:23;15.27;;;11.80;;
15425;SDS011;7812;50.072;7.036;2022-11-14T11:18:03;16.73;;;11.90;;
15425;SDS011;7812;50.072;7.036;2022-11-14T11:20:47;16.47;;;11.57;;
15425;SDS011;7812;50.072;7.036;2022-11-14T11:23:29;15.60;;;11.03;;
15425;SDS011;7812;50.072;7.036;2022-11-14T11:25:58;15.77;;;11.50;;
15425;SDS011;7812;50.072;7.036;2022-11-14T11:28:35;18.33;;;12.67;;
15425;SDS011;7812;50.072;7.036;2022-11-14T11:31:05;19.03;;;12.03;;
15425;SDS011;7812;50.072;7.036;2022-11-14T11:33:32;14.23;;;10.57;;
15425;SDS011;7812;50.072;7.036;2022-11-14T11:36:03;14.53;;;10.83;;
15425;SDS011;7812;50.072;7.036;2022-11-14T11:38:31;14.93;;;10.80;;
15425;SDS011;7812;50.072;7.036;2022-11-14T11:40:59;16.07;;;12.43;;
15425;SDS011;7812;50.072;7.036;2022-11-14T11:46:10;14.30;;;10.80;;
15425;SDS011;7812;50.072;7.036;2022-11-14T11:48:50;18.60;;;11.00;;
15425;SDS011;7812;50.072;7.036;2022-11-14T11:51:24;12.50;;;10.10;;
15425;SDS011;7812;50.072;7.036;2022-11-14T11:54:03;14.70;;;11.67;;
15425;SDS011;7812;50.072;7.036;2022-11-14T11:56:37;13.93;;;11.23;;
15425;SDS011;7812;50.072;7.036;2022-11-14T12:04:41;12.23;;;8.97;;
15425;SDS011;7812;50.072;7.036;2022-11-14T12:07:17;12.47;;;10.67;;
15425;SDS011;7812;50.072;7.036;2022-11-14T12:09:45;11.60;;;10.33;;
15425;SDS011;7812;50.072;7.036;2022-11-14T12:12:20;13.33;;;9.93;;
15425;SDS011;7812;50.072;7.036;2022-11-14T12:30:52;9.60;;;8.30;;
15425;SDS011;7812;50.072;7.036;2022-11-14T12:35:57;10.47;;;9.10;;
15425;SDS011;7812;50.072;7.036;2022-11-14T12:38:26;9.47;;;8.10;;
15425;SDS011;7812;50.072;7.036;2022-11-14T12:40:59;10.33;;;9.20;;
15425;SDS011;7812;50.072;7.036;2022-11-14T12:45:59;9.90;;;8.20;;
15425;SDS011;7812;50.072;7.036;2022-11-14T12:50:58;10.70;;;8.93;;
15425;SDS011;7812;50.072;7.036;2022-11-14T13:15:24;8.93;;;8.03;;
15425;SDS011;7812;50.072;7.036;2022-11-14T13:21:01;10.80;;;8.90;;
15425;SDS011;7812;50.072;7.036;2022-11-14T13:28:46;12.30;;;9.87;;
15425;SDS011;7812;50.072;7.036;2022-11-14T13:33:45;10.37;;;8.77;;
15425;SDS011;7812;50.072;7.036;2022-11-14T13:39:00;8.23;;;7.30;;
15425;SDS011;7812;50.072;7.036;2022-11-14T13:50:04;10.07;;;7.67;;
15425;SDS011;7812;50.072;7.036;2022-11-14T13:52:33;9.77;;;8.60;;
15425;SDS011;7812;50.072;7.036;2022-11-14T13:55:05;8.10;;;7.27;;
15425;SDS011;7812;50.072;7.036;2022-11-14T13:57:42;10.40;;;8.80;;
15425;SDS011;7812;50.072;7.036;2022-11-14T14:00:15;9.57;;;8.57;;
15425;SDS011;7812;50.072;7.036;2022-11-14T14:25:07;9.63;;;8.03;;
15425;SDS011;7812;50.072;7.036;2022-11-14T14:28:23;13.20;;;9.23;;
15425;SDS011;7812;50.072;7.036;2022-11-14T14:33:49;9.27;;;8.27;;
15425;SDS011;7812;50.072;7.036;2022-11-14T14:36:23;7.77;;;6.97;;
15425;SDS011;7812;50.072;7.036;2022-11-14T14:39:36;9.73;;;8.73;;
15425;SDS011;7812;50.072;7.036;2022-11-14T14:41:40;10.43;;;8.97;;
15425;SDS011;7812;50.072;7.036;2022-11-14T14:44:10;10.63;;;8.67;;
15425;SDS011;7812;50.072;7.036;2022-11-14T14:46:41;9.30;;;7.80;;
15425;SDS011;7812;50.072;7.036;2022-11-14T14:49:07;9.97;;;8.57;;
15425;SDS011;7812;50.072;7.036;2022-11-14T14:51:34;12.97;;;9.80;;
15425;SDS011;7812;50.072;7.036;2022-11-14T14:54:02;11.00;;;9.17;;
15425;SDS011;7812;50.072;7.036;2022-11-14T14:56:28;10.60;;;9.27;;
15425;SDS011;7812;50.072;7.036;2022-11-14T14:58:54;9.13;;;8.13;;
15425;SDS011;7812;50.072;7.036;2022-11-14T15:01:30;11.20;;;9.17;;
15425;SDS011;7812;50.072;7.036;2022-11-14T15:04:04;9.43;;;8.20;;
15425;SDS011;7812;50.072;7.036;2022-11-14T15:06:33;10.10;;;8.57;;
15425;SDS011;7812;50.072;7.036;2022-11-14T15:09:09;9.87;;;8.37;;
15425;SDS011;7812;50.072;7.036;2022-11-14T15:11:41;10.47;;;8.60;;
15425;SDS011;7812;50.072;7.036;2022-11-14T15:14:14;6.97;;;6.10;;
15425;SDS011;7812;50.072;7.036;2022-11-14T15:16:42;7.00;;;6.30;;
15425;SDS011;7812;50.072;7.036;2022-11-14T15:19:11;7.03;;;6.30;;
15425;SDS011;7812;50.072;7.036;2022-11-14T15:21:39;7.87;;;6.70;;
15425;SDS011;7812;50.072;7.036;2022-11-14T15:26:51;8.37;;;6.70;;
15425;SDS011;7812;50.072;7.036;2022-11-14T15:31:59;7.73;;;6.93;;
15425;SDS011;7812;50.072;7.036;2022-11-14T15:34:33;8.23;;;5.77;;
15425;SDS011;7812;50.072;7.036;2022-11-14T15:39:37;8.47;;;6.60;;
15425;SDS011;7812;50.072;7.036;2022-11-14T15:42:25;7.10;;;6.10;;
15425;SDS011;7812;50.072;7.036;2022-11-14T15:44:52;7.53;;;6.07;;
15425;SDS011;7812;50.072;7.036;2022-11-14T15:53:05;7.00;;;6.30;;
15425;SDS011;7812;50.072;7.036;2022-11-14T15:55:51;6.57;;;5.93;;
15425;SDS011;7812;50.072;7.036;2022-11-14T15:58:17;7.50;;;6.57;;
15425;SDS011;7812;50.072;7.036;2022-11-14T16:00:44;7.07;;;6.33;;
15425;SDS011;7812;50.072;7.036;2022-11-14T16:03:14;7.40;;;6.70;;
15425;SDS011;7812;50.072;7.036;2022-11-14T16:05:45;7.83;;;6.63;;
15425;SDS011;7812;50.072;7.036;2022-11-14T16:08:11;7.60;;;6.87;;
15425;SDS011;7812;50.072;7.036;2022-11-14T16:10:37;8.57;;;6.90;;
15425;SDS011;7812;50.072;7.036;2022-11-14T16:13:04;9.40;;;7.47;;
15425;SDS011;7812;50.072;7.036;2022-11-14T16:15:30;7.60;;;6.80;;
15425;SDS011;7812;50.072;7.036;2022-11-14T16:17:55;8.77;;;7.87;;
15425;SDS011;7812;50.072;7.036;2022-11-14T16:20:22;8.20;;;7.40;;
15425;SDS011;7812;50.072;7.036;2022-11-14T16:22:50;9.17;;;7.40;;
15425;SDS011;7812;50.072;7.036;2022-11-14T16:25:23;8.80;;;7.10;;
15425;SDS011;7812;50.072;7.036;2022-11-14T16:27:51;7.83;;;6.40;;
15425;SDS011;7812;50.072;7.036;2022-11-14T16:30:17;8.30;;;7.27;;
15425;SDS011;7812;50.072;7.036;2022-11-14T16:32:44;7.50;;;6.70;;
15425;SDS011;7812;50.072;7.036;2022-11-14T16:35:11;13.47;;;10.93;;
15425;SDS011;7812;50.072;7.036;2022-11-14T16:37:38;8.97;;;7.73;;
15425;SDS011;7812;50.072;7.036;2022-11-14T16:40:04;15.77;;;12.53;;
15425;SDS011;7812;50.072;7.036;2022-11-14T16:42:31;8.87;;;7.63;;
15425;SDS011;7812;50.072;7.036;2022-11-14T16:45:00;11.67;;;9.63;;
15425;SDS011;7812;50.072;7.036;2022-11-14T16:47:26;8.47;;;7.27;;
15425;SDS011;7812;50.072;7.036;2022-11-14T16:49:53;9.37;;;6.63;;
15425;SDS011;7812;50.072;7.036;2022-11-14T16:52:18;9.17;;;8.00;;
15425;SDS011;7812;50.072;7.036;2022-11-14T16:54:45;9.00;;;7.00;;
15425;SDS011;7812;50.072;7.036;2022-11-14T16:57:11;9.30;;;8.30;;
15425;SDS011;7812;50.072;7.036;2022-11-14T16:59:36;8.47;;;7.30;;
15425;SDS011;7812;50.072;7.036;2022-11-14T17:02:02;8.87;;;7.20;;
15425;SDS011;7812;50.072;7.036;2022-11-14T17:04:29;13.23;;;9.70;;
15425;SDS011;7812;50.072;7.036;2022-11-14T17:06:55;10.03;;;7.33;;
15425;SDS011;7812;50.072;7.036;2022-11-14T17:09:21;9.93;;;7.37;;
15425;SDS011;7812;50.072;7.036;2022-11-14T17:11:46;9.47;;;8.20;;
15425;SDS011;7812;50.072;7.036;2022-11-14T17:14:12;10.00;;;8.83;;
15425;SDS011;7812;50.072;7.036;2022-11-14T17:16:38;10.43;;;8.77;;
15425;SDS011;7812;50.072;7.036;2022-11-14T17:19:03;11.27;;;9.77;;
15425;SDS011;7812;50.072;7.036;2022-11-14T17:21:30;10.57;;;8.37;;
15425;SDS011;7812;50.072;7.036;2022-11-14T17:23:59;10.37;;;8.83;;
15425;SDS011;7812;50.072;7.036;2022-11-14T17:26:41;12.00;;;9.13;;
15425;SDS011;7812;50.072;7.036;2022-11-14T17:29:07;11.53;;;8.63;;
15425;SDS011;7812;50.072;7.036;2022-11-14T17:31:33;12.83;;;9.57;;
15425;SDS011;7812;50.072;7.036;2022-11-14T17:33:59;10.60;;;8.53;;
15425;SDS011;7812;50.072;7.036;2022-11-14T17:36:27;10.53;;;8.33;;
15425;SDS011;7812;50.072;7.036;2022-11-14T17:38:55;11.20;;;9.03;;
15425;SDS011;7812;50.072;7.036;2022-11-14T17:41:21;12.43;;;9.67;;
15425;SDS011;7812;50.072;7.036;2022-11-14T17:43:52;11.70;;;9.43;;
15425;SDS011;7812;50.072;7.036;2022-11-14T17:46:20;12.90;;;9.90;;
15425;SDS011;7812;50.072;7.036;2022-11-14T17:48:46;14.53;;;10.80;;
15425;SDS011;7812;50.072;7.036;2022-11-14T17:51:13;13.60;;;9.97;;